sensor_id;sensor_type;location;lat;lon;timestamp;pressure;altitude;pressure_sealevel;temperature;humidity
34235;BME280;20500;49.856;20.290;2023-12-07T04:31:18;98937.48;;;-2.86;79.95
34235;BME280;20500;49.856;20.290;2023-12-07T04:34:24;98938.43;;;-2.87;80.04
34235;BME280;20500;49.856;20.290;2023-12-07T04:37:29;98937.77;;;-2.85;80.08
34235;BME280;20500;49.856;20.290;2023-12-07T04:40:33;98939.30;;;-2.81;80.10
34235;BME280;20500;49.856;20.290;2023-12-07T04:43:38;98943.71;;;-2.83;80.02
34235;BME280;20500;49.856;20.290;2023-12-07T04:46:43;98945.46;;;-2.88;79.94
34235;BME280;20500;49.856;20.290;2023-12-07T04:49:47;98949.39;;;-2.94;79.96
34235;BME280;20500;49.856;20.290;2023-12-07T04:52:53;98949.50;;;-2.99;79.94
34235;BME280;20500;49.856;20.290;2023-12-07T04:55:58;98950.92;;;-3.04;79.90
34235;BME280;20500;49.856;20.290;2023-12-07T04:59:03;98954.88;;;-3.10;79.81
34235;BME280;20500;49.856;20.290;2023-12-07T05:02:07;98958.48;;;-3.14;79.84
34235;BME280;20500;49.856;20.290;2023-12-07T05:05:12;98961.22;;;-3.15;79.94
34235;BME280;20500;49.856;20.290;2023-12-07T05:08:17;98964.85;;;-3.16;80.03
34235;BME280;20500;49.856;20.290;2023-12-07T05:11:22;98965.60;;;-3.17;80.06
34235;BME280;20500;49.856;20.290;2023-12-07T05:14:26;98966.67;;;-3.17;80.02
34235;BME280;20500;49.856;20.290;2023-12-07T05:17:31;98967.98;;;-3.15;80.02
34235;BME280;20500;49.856;20.290;2023-12-07T05:20:36;98967.89;;;-3.14;80.01
34235;BME280;20500;49.856;20.290;2023-12-07T05:23:42;98967.66;;;-3.15;80.11
34235;BME280;20500;49.856;20.290;2023-12-07T05:26:47;98968.95;;;-3.14;80.15
34235;BME280;20500;49.856;20.290;2023-12-07T05:29:52;98971.74;;;-3.10;80.19
34235;BME280;20500;49.856;20.290;2023-12-07T05:32:56;98976.89;;;-3.07;80.04
34235;BME280;20500;49.856;20.290;2023-12-07T05:36:01;98978.17;;;-3.08;80.09
34235;BME280;20500;49.856;20.290;2023-12-07T05:39:06;98980.38;;;-3.09;80.05
34235;BME280;20500;49.856;20.290;2023-12-07T05:42:11;98985.38;;;-3.10;80.01
34235;BME280;20500;49.856;20.290;2023-12-07T05:45:16;98983.52;;;-3.08;80.06
34235;BME280;20500;49.856;20.290;2023-12-07T05:48:21;98986.94;;;-3.06;79.99
34235;BME280;20500;49.856;20.290;2023-12-07T05:51:25;98987.39;;;-3.05;80.04
34235;BME280;20500;49.856;20.290;2023-12-07T05:54:30;98990.62;;;-3.06;79.96
34235;BME280;20500;49.856;20.290;2023-12-07T05:57:35;98995.47;;;-3.07;80.02
34235;BME280;20500;49.856;20.290;2023-12-07T06:00:40;98996.58;;;-3.07;80.16
34235;BME280;20500;49.856;20.290;2023-12-07T06:03:44;98996.88;;;-3.06;80.08
34235;BME280;20500;49.856;20.290;2023-12-07T06:06:49;99001.85;;;-3.09;80.00
34235;BME280;20500;49.856;20.290;2023-12-07T06:09:54;99005.79;;;-3.10;80.18
34235;BME280;20500;49.856;20.290;2023-12-07T06:12:59;99007.77;;;-3.07;80.20
34235;BME280;20500;49.856;20.290;2023-12-07T06:16:04;99011.83;;;-3.04;80.08
34235;BME280;20500;49.856;20.290;2023-12-07T06:19:09;99015.44;;;-3.02;80.20
34235;BME280;20500;49.856;20.290;2023-12-07T06:22:14;99015.96;;;-3.02;80.12
34235;BME280;20500;49.856;20.290;2023-12-07T06:25:18;99017.90;;;-3.02;80.06
34235;BME280;20500;49.856;20.290;2023-12-07T06:28:23;99020.55;;;-3.02;80.10
34235;BME280;20500;49.856;20.290;2023-12-07T06:31:28;99021.55;;;-3.01;80.22
34235;BME280;20500;49.856;20.290;2023-12-07T06:34:32;99023.17;;;-3.01;80.22
34235;BME280;20500;49.856;20.290;2023-12-07T06:37:37;99025.66;;;-2.99;80.31
34235;BME280;20500;49.856;20.290;2023-12-07T06:40:42;99029.70;;;-2.95;80.35
34235;BME280;20500;49.856;20.290;2023-12-07T06:43:47;99029.65;;;-2.94;80.21
34235;BME280;20500;49.856;20.290;2023-12-07T06:46:52;99032.90;;;-2.92;80.23
34235;BME280;20500;49.856;20.290;2023-12-07T06:49:56;99038.07;;;-2.90;80.22
34235;BME280;20500;49.856;20.290;2023-12-07T06:53:01;99041.60;;;-2.87;80.34
34235;BME280;20500;49.856;20.290;2023-12-07T06:56:06;99041.92;;;-2.83;80.40
34235;BME280;20500;49.856;20.290;2023-12-07T06:59:11;99045.77;;;-2.80;80.33
34235;BME280;20500;49.856;20.290;2023-12-07T07:02:16;99049.71;;;-2.77;80.30
34235;BME280;20500;49.856;20.290;2023-12-07T07:05:20;99051.70;;;-2.75;80.26
34235;BME280;20500;49.856;20.290;2023-12-07T07:08:25;99053.72;;;-2.74;80.38
34235;BME280;20500;49.856;20.290;2023-12-07T07:11:30;99054.58;;;-2.70;80.41
34235;BME280;20500;49.856;20.290;2023-12-07T07:14:34;99058.83;;;-2.67;80.34
34235;BME280;20500;49.856;20.290;2023-12-07T07:17:39;99055.59;;;-2.66;80.39
34235;BME280;20500;49.856;20.290;2023-12-07T07:20:44;99053.80;;;-2.64;80.65
34235;BME280;20500;49.856;20.290;2023-12-07T07:23:50;99055.87;;;-2.60;80.58
34235;BME280;20500;49.856;20.290;2023-12-07T07:26:55;99057.64;;;-2.58;80.66
34235;BME280;20500;49.856;20.290;2023-12-07T07:29:59;99064.11;;;-2.58;80.51
34235;BME280;20500;49.856;20.290;2023-12-07T07:33:07;99068.27;;;-2.54;80.65
34235;BME280;20500;49.856;20.290;2023-12-07T07:36:12;99072.58;;;-2.47;80.80
34235;BME280;20500;49.856;20.290;2023-12-07T07:39:18;99072.17;;;-2.40;80.71
34235;BME280;20500;49.856;20.290;2023-12-07T07:42:22;99077.08;;;-2.36;80.68
34235;BME280;20500;49.856;20.290;2023-12-07T07:45:27;99080.60;;;-2.33;80.66
34235;BME280;20500;49.856;20.290;2023-12-07T07:48:32;99086.65;;;-2.31;80.62
34235;BME280;20500;49.856;20.290;2023-12-07T07:51:36;99089.02;;;-2.29;80.59
34235;BME280;20500;49.856;20.290;2023-12-07T07:54:42;99089.12;;;-2.28;80.60
34235;BME280;20500;49.856;20.290;2023-12-07T07:57:46;99086.85;;;-2.23;80.58
34235;BME280;20500;49.856;20.290;2023-12-07T08:00:51;99091.89;;;-2.18;80.66
34235;BME280;20500;49.856;20.290;2023-12-07T08:03:56;99093.95;;;-2.14;80.75
34235;BME280;20500;49.856;20.290;2023-12-07T08:07:00;99099.39;;;-2.14;80.73
34235;BME280;20500;49.856;20.290;2023-12-07T08:10:06;99100.02;;;-2.12;80.71
34235;BME280;20500;49.856;20.290;2023-12-07T08:13:12;99103.57;;;-2.10;80.82
34235;BME280;20500;49.856;20.290;2023-12-07T08:16:16;99103.34;;;-2.04;81.02
34235;BME280;20500;49.856;20.290;2023-12-07T08:19:21;99104.48;;;-1.97;81.02
34235;BME280;20500;49.856;20.290;2023-12-07T08:22:26;99107.41;;;-1.90;80.97
34235;BME280;20500;49.856;20.290;2023-12-07T08:25:31;99110.04;;;-1.81;81.03
34235;BME280;20500;49.856;20.290;2023-12-07T08:28:36;99113.27;;;-1.71;80.96
34235;BME280;20500;49.856;20.290;2023-12-07T08:31:41;99114.83;;;-1.66;81.05
34235;BME280;20500;49.856;20.290;2023-12-07T08:34:46;99121.52;;;-1.57;81.07
34235;BME280;20500;49.856;20.290;2023-12-07T08:37:51;99123.73;;;-1.50;81.06
34235;BME280;20500;49.856;20.290;2023-12-07T08:40:55;99125.18;;;-1.48;81.06
34235;BME280;20500;49.856;20.290;2023-12-07T08:44:00;99125.75;;;-1.43;81.09
34235;BME280;20500;49.856;20.290;2023-12-07T08:47:08;99128.95;;;-1.40;80.93
34235;BME280;20500;49.856;20.290;2023-12-07T08:50:12;99129.02;;;-1.36;81.03
34235;BME280;20500;49.856;20.290;2023-12-07T08:53:17;99133.27;;;-1.31;81.08
34235;BME280;20500;49.856;20.290;2023-12-07T08:56:22;99132.99;;;-1.24;81.14
34235;BME280;20500;49.856;20.290;2023-12-07T08:59:26;99133.00;;;-1.19;81.30
34235;BME280;20500;49.856;20.290;2023-12-07T09:02:31;99129.96;;;-1.16;81.20
34235;BME280;20500;49.856;20.290;2023-12-07T09:05:49;99129.46;;;-1.09;81.34
34235;BME280;20500;49.856;20.290;2023-12-07T09:08:53;99135.33;;;-0.96;81.42
34235;BME280;20500;49.856;20.290;2023-12-07T09:11:58;99137.30;;;-0.86;81.32
34235;BME280;20500;49.856;20.290;2023-12-07T09:15:03;99133.78;;;-0.80;81.28
34235;BME280;20500;49.856;20.290;2023-12-07T09:18:09;99131.08;;;-0.72;81.25
34235;BME280;20500;49.856;20.290;2023-12-07T09:21:14;99129.16;;;-0.65;81.28
34235;BME280;20500;49.856;20.290;2023-12-07T09:24:19;99126.05;;;-0.56;81.34
34235;BME280;20500;49.856;20.290;2023-12-07T09:27:24;99127.73;;;-0.47;81.48
34235;BME280;20500;49.856;20.290;2023-12-07T09:30:29;99128.20;;;-0.37;81.47
34235;BME280;20500;49.856;20.290;2023-12-07T09:33:34;99130.33;;;-0.31;81.20
34235;BME280;20500;49.856;20.290;2023-12-07T09:36:38;99130.36;;;-0.27;81.34
34235;BME280;20500;49.856;20.290;2023-12-07T09:39:43;99126.19;;;-0.19;81.36
34235;BME280;20500;49.856;20.290;2023-12-07T09:42:48;99121.56;;;-0.12;81.34
34235;BME280;20500;49.856;20.290;2023-12-07T09:45:53;99118.36;;;-0.05;81.25
34235;BME280;20500;49.856;20.290;2023-12-07T09:48:58;99119.16;;;-0.01;81.19
34235;BME280;20500;49.856;20.290;2023-12-07T09:52:03;99120.66;;;0.05;81.43
34235;BME280;20500;49.856;20.290;2023-12-07T09:55:10;99123.55;;;0.10;81.16
34235;BME280;20500;49.856;20.290;2023-12-07T09:58:15;99121.57;;;0.14;81.26
34235;BME280;20500;49.856;20.290;2023-12-07T10:01:33;99125.52;;;0.23;81.36
34235;BME280;20500;49.856;20.290;2023-12-07T10:04:39;99128.99;;;0.34;81.38
34235;BME280;20500;49.856;20.290;2023-12-07T10:07:44;99127.42;;;0.43;81.17
34235;BME280;20500;49.856;20.290;2023-12-07T10:10:51;99127.63;;;0.47;81.15
34235;BME280;20500;49.856;20.290;2023-12-07T10:14:06;99127.04;;;0.53;81.12
34235;BME280;20500;49.856;20.290;2023-12-07T10:17:12;99122.79;;;0.55;81.11
34235;BME280;20500;49.856;20.290;2023-12-07T10:20:17;99112.95;;;0.62;81.28
34235;BME280;20500;49.856;20.290;2023-12-07T10:23:22;99112.02;;;0.67;81.07
34235;BME280;20500;49.856;20.290;2023-12-07T10:26:28;99112.23;;;0.69;81.11
34235;BME280;20500;49.856;20.290;2023-12-07T10:29:37;99109.86;;;0.72;81.15
34235;BME280;20500;49.856;20.290;2023-12-07T10:32:43;99113.08;;;0.74;80.92
34235;BME280;20500;49.856;20.290;2023-12-07T10:35:48;99110.78;;;0.71;80.86
34235;BME280;20500;49.856;20.290;2023-12-07T10:38:53;99113.23;;;0.74;80.99
34235;BME280;20500;49.856;20.290;2023-12-07T10:41:59;99113.63;;;0.76;80.92
34235;BME280;20500;49.856;20.290;2023-12-07T10:45:07;99119.34;;;0.76;80.76
34235;BME280;20500;49.856;20.290;2023-12-07T10:48:12;99118.83;;;0.76;80.84
34235;BME280;20500;49.856;20.290;2023-12-07T10:51:20;99124.09;;;0.75;80.80
34235;BME280;20500;49.856;20.290;2023-12-07T10:54:29;99125.36;;;0.75;80.73
34235;BME280;20500;49.856;20.290;2023-12-07T10:57:34;99130.44;;;0.78;80.66
34235;BME280;20500;49.856;20.290;2023-12-07T11:00:43;99125.84;;;0.78;80.58
34235;BME280;20500;49.856;20.290;2023-12-07T11:03:51;99120.48;;;0.78;80.63
34235;BME280;20500;49.856;20.290;2023-12-07T11:06:59;99117.16;;;0.77;80.51
34235;BME280;20500;49.856;20.290;2023-12-07T11:10:10;99116.83;;;0.81;80.54
34235;BME280;20500;49.856;20.290;2023-12-07T11:13:18;99116.96;;;0.86;80.64
34235;BME280;20500;49.856;20.290;2023-12-07T11:16:30;99120.77;;;0.94;80.71
34235;BME280;20500;49.856;20.290;2023-12-07T11:19:50;99122.08;;;1.03;80.75
34235;BME280;20500;49.856;20.290;2023-12-07T11:22:55;99122.23;;;1.10;80.61
34235;BME280;20500;49.856;20.290;2023-12-07T11:26:00;99121.23;;;1.09;80.53
34235;BME280;20500;49.856;20.290;2023-12-07T11:29:05;99120.30;;;1.14;80.62
34235;BME280;20500;49.856;20.290;2023-12-07T11:32:13;99124.83;;;1.18;80.57
34235;BME280;20500;49.856;20.290;2023-12-07T11:35:28;99125.61;;;1.15;80.47
34235;BME280;20500;49.856;20.290;2023-12-07T11:38:32;99121.42;;;1.11;80.45
34235;BME280;20500;49.856;20.290;2023-12-07T11:41:37;99120.24;;;1.13;80.38
34235;BME280;20500;49.856;20.290;2023-12-07T11:44:48;99120.23;;;1.11;80.28
34235;BME280;20500;49.856;20.290;2023-12-07T11:51:11;99119.75;;;1.08;80.22
34235;BME280;20500;49.856;20.290;2023-12-07T11:54:16;99121.00;;;1.08;80.34
34235;BME280;20500;49.856;20.290;2023-12-07T11:57:21;99121.59;;;1.05;80.05
34235;BME280;20500;49.856;20.290;2023-12-07T12:00:26;99119.98;;;1.00;80.04
34235;BME280;20500;49.856;20.290;2023-12-07T12:03:31;99121.59;;;0.95;79.99
34235;BME280;20500;49.856;20.290;2023-12-07T12:06:37;99122.44;;;0.91;80.12
34235;BME280;20500;49.856;20.290;2023-12-07T12:09:41;99123.13;;;0.89;80.18
34235;BME280;20500;49.856;20.290;2023-12-07T12:12:46;99123.94;;;0.88;80.17
34235;BME280;20500;49.856;20.290;2023-12-07T12:15:51;99124.98;;;0.89;80.22
34235;BME280;20500;49.856;20.290;2023-12-07T12:18:55;99125.88;;;0.91;80.16
34235;BME280;20500;49.856;20.290;2023-12-07T12:22:02;99126.33;;;0.92;80.14
34235;BME280;20500;49.856;20.290;2023-12-07T12:25:10;99131.79;;;0.93;80.07
34235;BME280;20500;49.856;20.290;2023-12-07T12:28:16;99135.17;;;0.88;80.10
34235;BME280;20500;49.856;20.290;2023-12-07T12:31:21;99131.30;;;0.88;80.11
34235;BME280;20500;49.856;20.290;2023-12-07T12:34:26;99130.76;;;0.86;80.08
34235;BME280;20500;49.856;20.290;2023-12-07T12:37:32;99135.13;;;0.84;80.09
34235;BME280;20500;49.856;20.290;2023-12-07T12:40:36;99141.46;;;0.86;80.11
34235;BME280;20500;49.856;20.290;2023-12-07T12:43:41;99138.52;;;0.87;79.94
34235;BME280;20500;49.856;20.290;2023-12-07T12:46:48;99137.79;;;0.83;80.05
34235;BME280;20500;49.856;20.290;2023-12-07T12:49:53;99138.77;;;0.79;80.03
34235;BME280;20500;49.856;20.290;2023-12-07T12:52:59;99140.84;;;0.78;80.01
34235;BME280;20500;49.856;20.290;2023-12-07T12:56:05;99144.40;;;0.78;79.98
34235;BME280;20500;49.856;20.290;2023-12-07T12:59:09;99145.70;;;0.75;79.87
34235;BME280;20500;49.856;20.290;2023-12-07T13:02:15;99149.73;;;0.71;80.00
34235;BME280;20500;49.856;20.290;2023-12-07T13:05:21;99147.84;;;0.70;80.03
34235;BME280;20500;49.856;20.290;2023-12-07T13:08:26;99149.84;;;0.72;80.13
34235;BME280;20500;49.856;20.290;2023-12-07T13:11:30;99151.79;;;0.72;79.97
34235;BME280;20500;49.856;20.290;2023-12-07T13:14:35;99151.61;;;0.68;79.91
34235;BME280;20500;49.856;20.290;2023-12-07T13:17:42;99152.53;;;0.67;79.93
34235;BME280;20500;49.856;20.290;2023-12-07T13:20:47;99156.37;;;0.66;79.94
34235;BME280;20500;49.856;20.290;2023-12-07T13:23:58;99159.21;;;0.64;79.89
34235;BME280;20500;49.856;20.290;2023-12-07T13:27:05;99160.95;;;0.64;80.06
34235;BME280;20500;49.856;20.290;2023-12-07T13:30:10;99162.98;;;0.64;79.88
34235;BME280;20500;49.856;20.290;2023-12-07T13:33:15;99164.07;;;0.59;79.86
34235;BME280;20500;49.856;20.290;2023-12-07T13:36:30;99168.00;;;0.49;79.87
34235;BME280;20500;49.856;20.290;2023-12-07T13:39:36;99169.12;;;0.46;80.09
34235;BME280;20500;49.856;20.290;2023-12-07T13:42:41;99166.75;;;0.45;79.98
34235;BME280;20500;49.856;20.290;2023-12-07T13:45:45;99172.08;;;0.45;80.06
34235;BME280;20500;49.856;20.290;2023-12-07T13:48:50;99174.09;;;0.44;80.11
34235;BME280;20500;49.856;20.290;2023-12-07T13:51:55;99175.18;;;0.42;80.04
34235;BME280;20500;49.856;20.290;2023-12-07T13:55:00;99177.47;;;0.42;80.07
34235;BME280;20500;49.856;20.290;2023-12-07T13:58:05;99180.40;;;0.41;80.05
34235;BME280;20500;49.856;20.290;2023-12-07T14:01:10;99184.70;;;0.39;79.95
34235;BME280;20500;49.856;20.290;2023-12-07T14:04:15;99185.81;;;0.38;80.01
34235;BME280;20500;49.856;20.290;2023-12-07T14:07:31;99188.81;;;0.39;80.08
34235;BME280;20500;49.856;20.290;2023-12-07T14:10:36;99195.81;;;0.38;80.13
34235;BME280;20500;49.856;20.290;2023-12-07T14:13:40;99199.45;;;0.35;80.17
34235;BME280;20500;49.856;20.290;2023-12-07T14:16:45;99197.31;;;0.33;79.99
34235;BME280;20500;49.856;20.290;2023-12-07T14:20:10;99201.45;;;0.25;79.92
34235;BME280;20500;49.856;20.290;2023-12-07T14:23:35;99199.55;;;0.22;80.08
34235;BME280;20500;49.856;20.290;2023-12-07T14:26:43;99198.92;;;0.18;80.03
34235;BME280;20500;49.856;20.290;2023-12-07T14:29:48;99204.45;;;0.16;80.16
34235;BME280;20500;49.856;20.290;2023-12-07T14:32:52;99207.27;;;0.14;80.08
34235;BME280;20500;49.856;20.290;2023-12-07T14:35:57;99212.04;;;0.12;80.02
34235;BME280;20500;49.856;20.290;2023-12-07T14:39:02;99215.08;;;0.10;80.16
34235;BME280;20500;49.856;20.290;2023-12-07T14:42:09;99216.98;;;0.08;80.19
34235;BME280;20500;49.856;20.290;2023-12-07T14:45:14;99220.27;;;0.04;80.03
34235;BME280;20500;49.856;20.290;2023-12-07T14:48:19;99219.92;;;0.02;80.12
34235;BME280;20500;49.856;20.290;2023-12-07T14:51:24;99221.82;;;-0.02;80.00
34235;BME280;20500;49.856;20.290;2023-12-07T14:54:28;99223.45;;;-0.08;80.14
34235;BME280;20500;49.856;20.290;2023-12-07T14:57:34;99223.49;;;-0.11;80.12
34235;BME280;20500;49.856;20.290;2023-12-07T15:00:39;99223.23;;;-0.12;80.09
34235;BME280;20500;49.856;20.290;2023-12-07T15:03:47;99224.58;;;-0.13;80.01
34235;BME280;20500;49.856;20.290;2023-12-07T15:06:52;99223.27;;;-0.15;80.19
34235;BME280;20500;49.856;20.290;2023-12-07T15:09:58;99229.09;;;-0.16;80.15
34235;BME280;20500;49.856;20.290;2023-12-07T15:13:03;99230.98;;;-0.18;80.10
34235;BME280;20500;49.856;20.290;2023-12-07T15:16:08;99236.08;;;-0.19;80.22
34235;BME280;20500;49.856;20.290;2023-12-07T15:19:13;99236.95;;;-0.19;80.33
34235;BME280;20500;49.856;20.290;2023-12-07T15:22:17;99239.23;;;-0.18;80.22
34235;BME280;20500;49.856;20.290;2023-12-07T15:25:22;99243.42;;;-0.20;80.10
34235;BME280;20500;49.856;20.290;2023-12-07T15:28:27;99245.25;;;-0.20;80.26
34235;BME280;20500;49.856;20.290;2023-12-07T15:31:46;99249.02;;;-0.21;80.27
34235;BME280;20500;49.856;20.290;2023-12-07T15:34:51;99250.50;;;-0.24;80.29
34235;BME280;20500;49.856;20.290;2023-12-07T15:37:56;99252.14;;;-0.27;80.23
34235;BME280;20500;49.856;20.290;2023-12-07T15:41:01;99254.06;;;-0.32;80.28
34235;BME280;20500;49.856;20.290;2023-12-07T15:44:06;99254.85;;;-0.35;80.26
34235;BME280;20500;49.856;20.290;2023-12-07T15:47:12;99255.02;;;-0.35;80.28
34235;BME280;20500;49.856;20.290;2023-12-07T15:50:17;99258.64;;;-0.33;80.45
34235;BME280;20500;49.856;20.290;2023-12-07T15:53:22;99259.29;;;-0.32;80.37
34235;BME280;20500;49.856;20.290;2023-12-07T15:56:27;99262.89;;;-0.33;80.36
34235;BME280;20500;49.856;20.290;2023-12-07T15:59:31;99262.57;;;-0.33;80.47
34235;BME280;20500;49.856;20.290;2023-12-07T16:02:36;99265.67;;;-0.34;80.45
34235;BME280;20500;49.856;20.290;2023-12-07T16:05:41;99271.24;;;-0.32;80.40
34235;BME280;20500;49.856;20.290;2023-12-07T16:08:46;99274.80;;;-0.32;80.50
34235;BME280;20500;49.856;20.290;2023-12-07T16:11:51;99276.21;;;-0.34;80.45
34235;BME280;20500;49.856;20.290;2023-12-07T16:14:55;99278.73;;;-0.35;80.44
34235;BME280;20500;49.856;20.290;2023-12-07T16:18:00;99278.00;;;-0.37;80.32
34235;BME280;20500;49.856;20.290;2023-12-07T16:21:06;99277.33;;;-0.43;80.26
34235;BME280;20500;49.856;20.290;2023-12-07T16:24:13;99277.36;;;-0.46;80.41
34235;BME280;20500;49.856;20.290;2023-12-07T16:27:18;99275.65;;;-0.49;80.22
34235;BME280;20500;49.856;20.290;2023-12-07T16:30:22;99275.60;;;-0.52;80.43
34235;BME280;20500;49.856;20.290;2023-12-07T16:33:29;99278.11;;;-0.52;80.48
34235;BME280;20500;49.856;20.290;2023-12-07T16:36:33;99281.34;;;-0.52;80.57
34235;BME280;20500;49.856;20.290;2023-12-07T16:39:40;99280.78;;;-0.51;80.51
34235;BME280;20500;49.856;20.290;2023-12-07T16:42:45;99285.13;;;-0.52;80.57
34235;BME280;20500;49.856;20.290;2023-12-07T16:45:50;99284.59;;;-0.55;80.58
34235;BME280;20500;49.856;20.290;2023-12-07T16:48:55;99286.30;;;-0.54;80.61
34235;BME280;20500;49.856;20.290;2023-12-07T16:52:00;99284.05;;;-0.52;80.65
34235;BME280;20500;49.856;20.290;2023-12-07T16:55:05;99283.73;;;-0.53;80.49
34235;BME280;20500;49.856;20.290;2023-12-07T16:58:10;99285.45;;;-0.52;80.56
34235;BME280;20500;49.856;20.290;2023-12-07T17:01:29;99290.34;;;-0.51;80.65
34235;BME280;20500;49.856;20.290;2023-12-07T17:04:33;99288.33;;;-0.49;80.68
34235;BME280;20500;49.856;20.290;2023-12-07T17:07:38;99292.51;;;-0.48;80.63
34235;BME280;20500;49.856;20.290;2023-12-07T17:10:43;99292.34;;;-0.48;80.79
34235;BME280;20500;49.856;20.290;2023-12-07T17:13:47;99294.81;;;-0.48;80.74
34235;BME280;20500;49.856;20.290;2023-12-07T17:16:52;99297.80;;;-0.47;80.69
34235;BME280;20500;49.856;20.290;2023-12-07T17:19:57;99299.73;;;-0.47;80.78
34235;BME280;20500;49.856;20.290;2023-12-07T17:23:01;99303.09;;;-0.46;80.66
34235;BME280;20500;49.856;20.290;2023-12-07T17:26:06;99303.98;;;-0.46;80.79
34235;BME280;20500;49.856;20.290;2023-12-07T17:29:12;99309.04;;;-0.47;80.69
34235;BME280;20500;49.856;20.290;2023-12-07T17:32:16;99312.70;;;-0.54;80.69
34235;BME280;20500;49.856;20.290;2023-12-07T17:35:21;99311.52;;;-0.55;80.77
34235;BME280;20500;49.856;20.290;2023-12-07T17:38:26;99314.63;;;-0.54;80.74
34235;BME280;20500;49.856;20.290;2023-12-07T17:41:31;99317.48;;;-0.56;80.83
34235;BME280;20500;49.856;20.290;2023-12-07T17:44:35;99319.17;;;-0.58;80.93
34235;BME280;20500;49.856;20.290;2023-12-07T17:47:40;99319.98;;;-0.59;80.89
34235;BME280;20500;49.856;20.290;2023-12-07T17:50:45;99312.48;;;-0.59;80.87
34235;BME280;20500;49.856;20.290;2023-12-07T17:53:50;99310.21;;;-0.57;80.81
34235;BME280;20500;49.856;20.290;2023-12-07T17:56:55;99311.30;;;-0.57;80.93
34235;BME280;20500;49.856;20.290;2023-12-07T18:00:00;99313.34;;;-0.56;80.90
34235;BME280;20500;49.856;20.290;2023-12-07T18:03:05;99312.69;;;-0.54;80.93
34235;BME280;20500;49.856;20.290;2023-12-07T18:06:10;99311.77;;;-0.53;80.94
34235;BME280;20500;49.856;20.290;2023-12-07T18:09:15;99313.50;;;-0.53;80.98
34235;BME280;20500;49.856;20.290;2023-12-07T18:12:20;99313.66;;;-0.52;81.02
34235;BME280;20500;49.856;20.290;2023-12-07T18:15:25;99308.15;;;-0.53;81.03
34235;BME280;20500;49.856;20.290;2023-12-07T18:18:29;99313.65;;;-0.53;81.10
34235;BME280;20500;49.856;20.290;2023-12-07T18:21:34;99313.77;;;-0.52;81.16
34235;BME280;20500;49.856;20.290;2023-12-07T18:24:39;99314.63;;;-0.51;81.11
34235;BME280;20500;49.856;20.290;2023-12-07T18:27:43;99315.23;;;-0.52;80.96
34235;BME280;20500;49.856;20.290;2023-12-07T18:30:50;99315.30;;;-0.53;81.07
34235;BME280;20500;49.856;20.290;2023-12-07T18:33:54;99317.95;;;-0.53;81.05
34235;BME280;20500;49.856;20.290;2023-12-07T18:36:59;99315.95;;;-0.52;81.11
34235;BME280;20500;49.856;20.290;2023-12-07T18:40:07;99311.30;;;-0.52;81.10
34235;BME280;20500;49.856;20.290;2023-12-07T18:43:12;99309.17;;;-0.52;81.18
34235;BME280;20500;49.856;20.290;2023-12-07T18:46:17;99303.09;;;-0.52;81.08
34235;BME280;20500;49.856;20.290;2023-12-07T18:49:21;99304.36;;;-0.52;81.22
34235;BME280;20500;49.856;20.290;2023-12-07T18:52:27;99306.92;;;-0.53;81.11
34235;BME280;20500;49.856;20.290;2023-12-07T18:55:32;99310.41;;;-0.54;81.22
34235;BME280;20500;49.856;20.290;2023-12-07T18:58:37;99313.00;;;-0.56;81.11
34235;BME280;20500;49.856;20.290;2023-12-07T19:01:42;99315.02;;;-0.54;81.25
34235;BME280;20500;49.856;20.290;2023-12-07T19:04:46;99313.73;;;-0.54;81.28
34235;BME280;20500;49.856;20.290;2023-12-07T19:07:52;99312.39;;;-0.55;81.19
34235;BME280;20500;49.856;20.290;2023-12-07T19:10:56;99312.23;;;-0.58;81.22
34235;BME280;20500;49.856;20.290;2023-12-07T19:14:01;99311.04;;;-0.61;81.24
34235;BME280;20500;49.856;20.290;2023-12-07T19:17:05;99310.73;;;-0.62;81.21
34235;BME280;20500;49.856;20.290;2023-12-07T19:20:11;99309.23;;;-0.61;81.18
34235;BME280;20500;49.856;20.290;2023-12-07T19:23:16;99314.77;;;-0.58;81.36
34235;BME280;20500;49.856;20.290;2023-12-07T19:26:21;99314.82;;;-0.56;81.29
34235;BME280;20500;49.856;20.290;2023-12-07T19:29:26;99313.75;;;-0.56;81.34
34235;BME280;20500;49.856;20.290;2023-12-07T19:32:31;99314.60;;;-0.56;81.51
34235;BME280;20500;49.856;20.290;2023-12-07T19:35:35;99318.05;;;-0.54;81.44
34235;BME280;20500;49.856;20.290;2023-12-07T19:38:40;99319.41;;;-0.53;81.35
34235;BME280;20500;49.856;20.290;2023-12-07T19:41:45;99320.30;;;-0.53;81.34
34235;BME280;20500;49.856;20.290;2023-12-07T19:44:50;99321.90;;;-0.53;81.39
34235;BME280;20500;49.856;20.290;2023-12-07T19:47:55;99325.96;;;-0.53;81.50
34235;BME280;20500;49.856;20.290;2023-12-07T19:51:00;99324.52;;;-0.52;81.52
34235;BME280;20500;49.856;20.290;2023-12-07T19:54:05;99328.35;;;-0.51;81.57
34235;BME280;20500;49.856;20.290;2023-12-07T19:57:11;99326.98;;;-0.52;81.51
34235;BME280;20500;49.856;20.290;2023-12-07T20:00:16;99328.86;;;-0.51;81.53
34235;BME280;20500;49.856;20.290;2023-12-07T20:03:24;99332.79;;;-0.51;81.73
34235;BME280;20500;49.856;20.290;2023-12-07T20:06:28;99334.50;;;-0.50;81.63
34235;BME280;20500;49.856;20.290;2023-12-07T20:09:41;99328.49;;;-0.51;81.46
34235;BME280;20500;49.856;20.290;2023-12-07T20:12:47;99331.39;;;-0.51;81.48
34235;BME280;20500;49.856;20.290;2023-12-07T20:15:52;99328.06;;;-0.52;81.68
34235;BME280;20500;49.856;20.290;2023-12-07T20:18:56;99323.45;;;-0.52;81.64
34235;BME280;20500;49.856;20.290;2023-12-07T20:22:01;99325.41;;;-0.52;81.71
34235;BME280;20500;49.856;20.290;2023-12-07T20:25:13;99325.11;;;-0.48;81.79
34235;BME280;20500;49.856;20.290;2023-12-07T20:28:17;99323.32;;;-0.42;81.81
34235;BME280;20500;49.856;20.290;2023-12-07T20:31:22;99325.67;;;-0.40;81.80
34235;BME280;20500;49.856;20.290;2023-12-07T20:34:26;99329.15;;;-0.39;81.70
34235;BME280;20500;49.856;20.290;2023-12-07T20:37:34;99327.80;;;-0.43;81.51
34235;BME280;20500;49.856;20.290;2023-12-07T20:40:39;99331.61;;;-0.46;81.71
34235;BME280;20500;49.856;20.290;2023-12-07T20:43:43;99332.13;;;-0.49;81.68
34235;BME280;20500;49.856;20.290;2023-12-07T20:46:48;99331.31;;;-0.50;81.71